Cimil — LXCI — position and weather

sailwx.info

Track history (hours):
 
Tides and Currents Weather Stations Pressure Air Temp Water Temp Dewpoint Dewpoint Depression Visibility Wind Speed Wind Dir Waves Ship Positions

Cimil

Last reported at 2018-Apr-06 18:44 UTC. Time now 2018-Apr-25 08:59 UTC.
Position N 28°09' W 016°17'.
Warning: this ship's position is 18 days out of date.

Length 100 m; draft 5.9 m.

Type: Tanker. MMSI: 253437000.

Date/timePositionNaut miles runAvg speedWind from/ knotsBaromVisibWave heightAir tempDewpointWater temp
2018-Apr-06 18:44N 28°09' W 016°17'210.6
2018-Apr-06 18:30N 28°11' W 016°17'510.3
2018-Apr-06 18:00N 28°16' W 016°16'510.1
2018-Apr-06 17:30N 28°21' W 016°15'5 9.9
2018-Apr-06 17:00N 28°26' W 016°13'3 5.6
2018-Apr-06 16:28N 28°29' W 016°13'0 0.0
2018-Apr-06 15:58N 28°29' W 016°13'0 0.0
2018-Apr-06 15:28N 28°29' W 016°13'0 0.1
2018-Apr-06 14:58N 28°29' W 016°13'0 0.0
2018-Apr-06 14:28N 28°29' W 016°13'0 0.0
2018-Apr-06 13:58N 28°29' W 016°13'0 0.0
2018-Apr-06 13:28N 28°29' W 016°13'0 0.0
2018-Apr-06 12:58N 28°29' W 016°13'0 0.0
2018-Apr-06 12:28N 28°29' W 016°13'0 0.0
2018-Apr-06 11:58N 28°29' W 016°13'0 0.0
2018-Apr-06 11:28N 28°29' W 016°13'0 0.0
2018-Apr-06 10:58N 28°29' W 016°13'0 0.1
2018-Apr-06 10:28N 28°29' W 016°13'0 0.0
2018-Apr-06 10:00N 28°29' W 016°13'2 3.4
2018-Apr-06 09:30N 28°28' W 016°12'4 8.4
2018-Apr-06 09:00N 28°27' W 016°08'5 9.0
2018-Apr-06 08:29N 28°27' W 016°02'5 9.3
2018-Apr-06 08:00N 28°27' W 015°57'5 9.1
2018-Apr-06 07:30N 28°29' W 015°53'510.2
2018-Apr-06 06:59N 28°33' W 015°49'510.0
2018-Apr-06 06:30N 28°37' W 015°45'510.0
2018-Apr-06 06:00N 28°41' W 015°42'5 9.9
2018-Apr-06 05:30N 28°45' W 015°39'510.0
2018-Apr-06 05:00N 28°50' W 015°37'610.3
2018-Apr-06 04:27N 28°55' W 015°35'510.3
2018-Apr-06 03:56N 29°00' W 015°33'510.1
2018-Apr-06 03:28N 29°05' W 015°31'5 9.8
2018-Apr-06 02:58N 29°09' W 015°30'510.0
2018-Apr-06 02:30N 29°14' W 015°28'5 9.9
2018-Apr-06 01:58N 29°19' W 015°26'610.1
2018-Apr-06 01:24N 29°24' W 015°24'410.3
2018-Apr-06 00:59N 29°28' W 015°23'510.5
2018-Apr-06 00:30N 29°33' W 015°21'610.7
2018-Apr-05 23:59N 29°39' W 015°19'510.5
2018-Apr-05 23:30N 29°43' W 015°18'510.4
2018-Apr-05 23:00N 29°48' W 015°16'510.5
2018-Apr-05 22:30N 29°53' W 015°14'610.5
2018-Apr-05 21:53N 29°60' W 015°12'510.5
2018-Apr-05 21:25N 30°04' W 015°11'510.6
2018-Apr-05 20:59N 30°09' W 015°09'510.7
2018-Apr-05 20:30N 30°14' W 015°07'910.9
2018-Apr-05 19:39N 30°22' W 015°04'210.8
2018-Apr-05 19:30N 30°24' W 015°03'  
2018-Mar-30 13:04N 49°47' W 003°28'111.6
2018-Mar-30 13:00N 49°47' W 003°27'611.9
2018-Mar-30 12:29N 49°50' W 003°18'612.1
2018-Mar-30 11:59N 49°53' W 003°10'612.2
2018-Mar-30 11:29N 49°57' W 003°02'611.9
2018-Mar-30 11:00N 49°58' W 002°54'811.3
2018-Mar-30 10:15N 50°01' W 002°41'51 8.0
2018-Mar-30 03:51N 50°14' W 001°24'3612.2
2018-Mar-30 00:54N 50°24' W 000°30'511.9
2018-Mar-30 00:30N 50°25' W 000°23'611.3
2018-Mar-30 00:00N 50°26' W 000°14'510.9
2018-Mar-29 23:30N 50°28' W 000°06'510.5
2018-Mar-29 23:00N 50°29' E 000°02'510.1
2018-Mar-29 22:30N 50°31' E 000°09'5 9.5
2018-Mar-29 22:00N 50°32' E 000°17'5 9.0
2018-Mar-29 21:30N 50°33' E 000°23'4 8.5
2018-Mar-29 21:00N 50°34' E 000°30'4 8.0
2018-Mar-29 20:30N 50°35' E 000°36'4 8.1
2018-Mar-29 20:00N 50°37' E 000°41'4 8.3
2018-Mar-29 19:30N 50°40' E 000°47'4 8.8
2018-Mar-29 19:00N 50°42' E 000°52'5 9.4
2018-Mar-29 18:30N 50°45' E 000°59'510.3
2018-Mar-29 17:59N 50°48' E 001°06'711.1
2018-Mar-29 17:23N 50°51' E 001°14'511.6
2018-Mar-29 16:58N 50°55' E 001°19'511.7
2018-Mar-29 16:30N 50°60' E 001°24'611.6
2018-Mar-29 16:00N 51°04' E 001°30'610.9
2018-Mar-29 15:30N 51°08' E 001°37'510.1
2018-Mar-29 15:00N 51°11' E 001°42'510.0
2018-Mar-29 14:30N 51°15' E 001°47'5 9.4
2018-Mar-29 14:00N 51°19' E 001°51'5 9.1
2018-Mar-29 13:30N 51°23' E 001°55'4 8.8
2018-Mar-29 13:00N 51°27' E 001°59'4 8.4
2018-Mar-29 12:30N 51°30' E 002°03'4 8.2
2018-Mar-29 12:01N 51°33' E 002°08'4 8.3
2018-Mar-29 11:30N 51°36' E 002°12'4 8.3
2018-Mar-29 11:00N 51°39' E 002°17'4 8.7
2018-Mar-29 10:30N 51°42' E 002°22'4310.1
2018-Mar-29 06:13N 52°03' E 003°22'510.9
2018-Mar-29 05:46N 52°03' E 003°30'310.8
2018-Mar-29 05:28N 52°04' E 003°36'510.5
2018-Mar-29 05:00N 52°03' E 003°44'510.2
2018-Mar-29 04:30N 52°03' E 003°52'4 7.9
2018-Mar-29 04:00N 52°01' E 003°58'510.1
2018-Mar-29 03:30N 51°59' E 004°05'510.9
2018-Mar-29 03:00N 51°56' E 004°12'5 9.7
2018-Mar-29 02:30N 51°53' E 004°19'1 1.6
2018-Mar-29 02:00N 51°53' E 004°18'0 0.0
2018-Mar-29 01:30N 51°53' E 004°18'0 0.0
2018-Mar-29 01:00N 51°53' E 004°18'0 0.0
2018-Mar-29 00:30N 51°53' E 004°18'0 0.0
2018-Mar-29 00:00N 51°53' E 004°18'0 0.0
2018-Mar-28 23:30N 51°53' E 004°18'0 0.0
2018-Mar-28 23:00N 51°53' E 004°18'0 0.0
2018-Mar-28 22:30N 51°53' E 004°18'0 0.0
2018-Mar-28 22:00N 51°53' E 004°18'0 0.0
2018-Mar-28 21:30N 51°53' E 004°18'0 0.0
2018-Mar-28 21:00N 51°53' E 004°18'0 0.0
2018-Mar-28 20:30N 51°53' E 004°18'0 0.0
2018-Mar-28 20:00N 51°53' E 004°18'0 0.0
2018-Mar-28 19:30N 51°53' E 004°18'0 0.1
2018-Mar-28 19:00N 51°53' E 004°18'0 0.0
2018-Mar-28 18:30N 51°53' E 004°18'0 0.0
2018-Mar-28 18:00N 51°53' E 004°18'0 0.0
2018-Mar-28 17:30N 51°53' E 004°18'0 0.0
2018-Mar-28 17:00N 51°53' E 004°18'0 0.0
2018-Mar-28 16:30N 51°53' E 004°18'0 0.1
2018-Mar-28 16:00N 51°53' E 004°18'0 0.1
2018-Mar-28 15:30N 51°53' E 004°18'0 0.0
2018-Mar-28 15:00N 51°53' E 004°18'0 0.0
2018-Mar-28 14:30N 51°53' E 004°18'0 0.0
2018-Mar-28 14:00N 51°53' E 004°18'0 0.0
2018-Mar-28 13:30N 51°53' E 004°18'0 0.0
2018-Mar-28 13:00N 51°53' E 004°18'0 0.0
2018-Mar-28 12:30N 51°53' E 004°18'0 0.0
2018-Mar-28 12:00N 51°53' E 004°18'0 0.1
2018-Mar-28 11:30N 51°53' E 004°18'0 0.0
2018-Mar-28 11:00N 51°53' E 004°18'0 0.0
2018-Mar-28 10:30N 51°53' E 004°18'0 0.0
2018-Mar-28 10:00N 51°53' E 004°18'0 0.0
2018-Mar-28 09:30N 51°53' E 004°18'0 0.0
2018-Mar-28 09:00N 51°53' E 004°18'0 0.0
2018-Mar-28 08:30N 51°53' E 004°18'0 0.0
2018-Mar-28 08:00N 51°53' E 004°18'0 0.1
2018-Mar-28 07:30N 51°53' E 004°18'0 0.0
2018-Mar-28 07:00N 51°53' E 004°18'0 0.0
2018-Mar-28 06:30N 51°53' E 004°18'0 0.0
2018-Mar-28 06:00N 51°53' E 004°18'0 0.0
2018-Mar-28 05:30N 51°53' E 004°18'0 0.0
2018-Mar-28 05:00N 51°53' E 004°18'0 0.0
2018-Mar-28 04:30N 51°53' E 004°18'0 0.0
2018-Mar-28 04:00N 51°53' E 004°18'0 0.1
2018-Mar-28 03:30N 51°53' E 004°18'0 0.0
2018-Mar-28 03:00N 51°53' E 004°18'0 0.0
2018-Mar-28 02:30N 51°53' E 004°18'0 0.0
2018-Mar-28 02:00N 51°53' E 004°18'0 0.0
2018-Mar-28 01:30N 51°53' E 004°18'0 0.0
2018-Mar-28 01:00N 51°53' E 004°18'0 0.0
2018-Mar-28 00:30N 51°53' E 004°18'0 0.0
2018-Mar-28 00:00N 51°53' E 004°18'0 0.0
2018-Mar-27 23:30N 51°53' E 004°18'0 0.0
2018-Mar-27 23:00N 51°53' E 004°18'0 0.0
2018-Mar-27 22:30N 51°53' E 004°18'0 0.1
2018-Mar-27 22:00N 51°53' E 004°18'0 0.0
2018-Mar-27 21:30N 51°53' E 004°18'0 0.0
2018-Mar-27 21:00N 51°53' E 004°18'0 0.0
2018-Mar-27 20:30N 51°53' E 004°18'0 0.0
2018-Mar-27 20:00N 51°53' E 004°18'0 0.0
2018-Mar-27 19:30N 51°53' E 004°18'0 0.0
2018-Mar-27 19:00N 51°53' E 004°18'  
Track history (hours):
 
Tides and Currents Weather Stations Pressure Air Temp Water Temp Dewpoint Dewpoint Depression Visibility Wind Speed Wind Dir Waves Ship Positions

Cimil

Last reported at 2018-Apr-06 18:44 UTC. Time now 2018-Apr-25 08:59 UTC.
Position N 28°09' W 016°17'.
Warning: this ship's position is 18 days out of date.

Length 100 m; draft 5.9 m.

Type: Tanker. MMSI: 253437000.

Date/timePositionNaut miles runAvg speedWind from/ knotsBaromVisibWave heightAir tempDewpointWater temp
2018-Apr-06 18:44N 28°09' W 016°17'210.6
2018-Apr-06 18:30N 28°11' W 016°17'510.3
2018-Apr-06 18:00N 28°16' W 016°16'510.1
2018-Apr-06 17:30N 28°21' W 016°15'5 9.9
2018-Apr-06 17:00N 28°26' W 016°13'3 5.6
2018-Apr-06 16:28N 28°29' W 016°13'0 0.0
2018-Apr-06 15:58N 28°29' W 016°13'0 0.0
2018-Apr-06 15:28N 28°29' W 016°13'0 0.1
2018-Apr-06 14:58N 28°29' W 016°13'0 0.0
2018-Apr-06 14:28N 28°29' W 016°13'0 0.0
2018-Apr-06 13:58N 28°29' W 016°13'0 0.0
2018-Apr-06 13:28N 28°29' W 016°13'0 0.0
2018-Apr-06 12:58N 28°29' W 016°13'0 0.0
2018-Apr-06 12:28N 28°29' W 016°13'0 0.0
2018-Apr-06 11:58N 28°29' W 016°13'0 0.0
2018-Apr-06 11:28N 28°29' W 016°13'0 0.0
2018-Apr-06 10:58N 28°29' W 016°13'0 0.1
2018-Apr-06 10:28N 28°29' W 016°13'0 0.0
2018-Apr-06 10:00N 28°29' W 016°13'2 3.4
2018-Apr-06 09:30N 28°28' W 016°12'4 8.4
2018-Apr-06 09:00N 28°27' W 016°08'5 9.0
2018-Apr-06 08:29N 28°27' W 016°02'5 9.3
2018-Apr-06 08:00N 28°27' W 015°57'5 9.1
2018-Apr-06 07:30N 28°29' W 015°53'510.2
2018-Apr-06 06:59N 28°33' W 015°49'510.0
2018-Apr-06 06:30N 28°37' W 015°45'510.0
2018-Apr-06 06:00N 28°41' W 015°42'5 9.9
2018-Apr-06 05:30N 28°45' W 015°39'510.0
2018-Apr-06 05:00N 28°50' W 015°37'610.3
2018-Apr-06 04:27N 28°55' W 015°35'510.3
2018-Apr-06 03:56N 29°00' W 015°33'510.1
2018-Apr-06 03:28N 29°05' W 015°31'5 9.8
2018-Apr-06 02:58N 29°09' W 015°30'510.0
2018-Apr-06 02:30N 29°14' W 015°28'5 9.9
2018-Apr-06 01:58N 29°19' W 015°26'610.1
2018-Apr-06 01:24N 29°24' W 015°24'410.3
2018-Apr-06 00:59N 29°28' W 015°23'510.5
2018-Apr-06 00:30N 29°33' W 015°21'610.7
2018-Apr-05 23:59N 29°39' W 015°19'510.5
2018-Apr-05 23:30N 29°43' W 015°18'510.4
2018-Apr-05 23:00N 29°48' W 015°16'510.5
2018-Apr-05 22:30N 29°53' W 015°14'610.5
2018-Apr-05 21:53N 29°60' W 015°12'510.5
2018-Apr-05 21:25N 30°04' W 015°11'510.6
2018-Apr-05 20:59N 30°09' W 015°09'510.7
2018-Apr-05 20:30N 30°14' W 015°07'910.9
2018-Apr-05 19:39N 30°22' W 015°04'210.8
2018-Apr-05 19:30N 30°24' W 015°03'  
2018-Mar-30 13:04N 49°47' W 003°28'111.6
2018-Mar-30 13:00N 49°47' W 003°27'611.9
2018-Mar-30 12:29N 49°50' W 003°18'612.1
2018-Mar-30 11:59N 49°53' W 003°10'612.2
2018-Mar-30 11:29N 49°57' W 003°02'611.9
2018-Mar-30 11:00N 49°58' W 002°54'811.3
2018-Mar-30 10:15N 50°01' W 002°41'51 8.0
2018-Mar-30 03:51N 50°14' W 001°24'3612.2
2018-Mar-30 00:54N 50°24' W 000°30'511.9
2018-Mar-30 00:30N 50°25' W 000°23'611.3
2018-Mar-30 00:00N 50°26' W 000°14'510.9
2018-Mar-29 23:30N 50°28' W 000°06'510.5
2018-Mar-29 23:00N 50°29' E 000°02'510.1
2018-Mar-29 22:30N 50°31' E 000°09'5 9.5
2018-Mar-29 22:00N 50°32' E 000°17'5 9.0
2018-Mar-29 21:30N 50°33' E 000°23'4 8.5
2018-Mar-29 21:00N 50°34' E 000°30'4 8.0
2018-Mar-29 20:30N 50°35' E 000°36'4 8.1
2018-Mar-29 20:00N 50°37' E 000°41'4 8.3
2018-Mar-29 19:30N 50°40' E 000°47'4 8.8
2018-Mar-29 19:00N 50°42' E 000°52'5 9.4
2018-Mar-29 18:30N 50°45' E 000°59'510.3
2018-Mar-29 17:59N 50°48' E 001°06'711.1
2018-Mar-29 17:23N 50°51' E 001°14'511.6
2018-Mar-29 16:58N 50°55' E 001°19'511.7
2018-Mar-29 16:30N 50°60' E 001°24'611.6
2018-Mar-29 16:00N 51°04' E 001°30'610.9
2018-Mar-29 15:30N 51°08' E 001°37'510.1
2018-Mar-29 15:00N 51°11' E 001°42'510.0
2018-Mar-29 14:30N 51°15' E 001°47'5 9.4
2018-Mar-29 14:00N 51°19' E 001°51'5 9.1
2018-Mar-29 13:30N 51°23' E 001°55'4 8.8
2018-Mar-29 13:00N 51°27' E 001°59'4 8.4
2018-Mar-29 12:30N 51°30' E 002°03'4 8.2
2018-Mar-29 12:01N 51°33' E 002°08'4 8.3
2018-Mar-29 11:30N 51°36' E 002°12'4 8.3
2018-Mar-29 11:00N 51°39' E 002°17'4 8.7
2018-Mar-29 10:30N 51°42' E 002°22'4310.1
2018-Mar-29 06:13N 52°03' E 003°22'510.9
2018-Mar-29 05:46N 52°03' E 003°30'310.8
2018-Mar-29 05:28N 52°04' E 003°36'510.5
2018-Mar-29 05:00N 52°03' E 003°44'510.2
2018-Mar-29 04:30N 52°03' E 003°52'4 7.9
2018-Mar-29 04:00N 52°01' E 003°58'510.1
2018-Mar-29 03:30N 51°59' E 004°05'510.9
2018-Mar-29 03:00N 51°56' E 004°12'5 9.7
2018-Mar-29 02:30N 51°53' E 004°19'1 1.6
2018-Mar-29 02:00N 51°53' E 004°18'0 0.0
2018-Mar-29 01:30N 51°53' E 004°18'0 0.0
2018-Mar-29 01:00N 51°53' E 004°18'0 0.0
2018-Mar-29 00:30N 51°53' E 004°18'0 0.0
2018-Mar-29 00:00N 51°53' E 004°18'0 0.0
2018-Mar-28 23:30N 51°53' E 004°18'0 0.0
2018-Mar-28 23:00N 51°53' E 004°18'0 0.0
2018-Mar-28 22:30N 51°53' E 004°18'0 0.0
2018-Mar-28 22:00N 51°53' E 004°18'0 0.0
2018-Mar-28 21:30N 51°53' E 004°18'0 0.0
2018-Mar-28 21:00N 51°53' E 004°18'0 0.0
2018-Mar-28 20:30N 51°53' E 004°18'0 0.0
2018-Mar-28 20:00N 51°53' E 004°18'0 0.0
2018-Mar-28 19:30N 51°53' E 004°18'0 0.1
2018-Mar-28 19:00N 51°53' E 004°18'0 0.0
2018-Mar-28 18:30N 51°53' E 004°18'0 0.0
2018-Mar-28 18:00N 51°53' E 004°18'0 0.0
2018-Mar-28 17:30N 51°53' E 004°18'0 0.0
2018-Mar-28 17:00N 51°53' E 004°18'0 0.0
2018-Mar-28 16:30N 51°53' E 004°18'0 0.1
2018-Mar-28 16:00N 51°53' E 004°18'0 0.1
2018-Mar-28 15:30N 51°53' E 004°18'0 0.0
2018-Mar-28 15:00N 51°53' E 004°18'0 0.0
2018-Mar-28 14:30N 51°53' E 004°18'0 0.0
2018-Mar-28 14:00N 51°53' E 004°18'0 0.0
2018-Mar-28 13:30N 51°53' E 004°18'0 0.0
2018-Mar-28 13:00N 51°53' E 004°18'0 0.0
2018-Mar-28 12:30N 51°53' E 004°18'0 0.0
2018-Mar-28 12:00N 51°53' E 004°18'0 0.1
2018-Mar-28 11:30N 51°53' E 004°18'0 0.0
2018-Mar-28 11:00N 51°53' E 004°18'0 0.0
2018-Mar-28 10:30N 51°53' E 004°18'0 0.0
2018-Mar-28 10:00N 51°53' E 004°18'0 0.0
2018-Mar-28 09:30N 51°53' E 004°18'0 0.0
2018-Mar-28 09:00N 51°53' E 004°18'0 0.0
2018-Mar-28 08:30N 51°53' E 004°18'0 0.0
2018-Mar-28 08:00N 51°53' E 004°18'0 0.1
2018-Mar-28 07:30N 51°53' E 004°18'0 0.0
2018-Mar-28 07:00N 51°53' E 004°18'0 0.0
2018-Mar-28 06:30N 51°53' E 004°18'0 0.0
2018-Mar-28 06:00N 51°53' E 004°18'0 0.0
2018-Mar-28 05:30N 51°53' E 004°18'0 0.0
2018-Mar-28 05:00N 51°53' E 004°18'0 0.0
2018-Mar-28 04:30N 51°53' E 004°18'0 0.0
2018-Mar-28 04:00N 51°53' E 004°18'0 0.1
2018-Mar-28 03:30N 51°53' E 004°18'0 0.0
2018-Mar-28 03:00N 51°53' E 004°18'0 0.0
2018-Mar-28 02:30N 51°53' E 004°18'0 0.0
2018-Mar-28 02:00N 51°53' E 004°18'0 0.0
2018-Mar-28 01:30N 51°53' E 004°18'0 0.0
2018-Mar-28 01:00N 51°53' E 004°18'0 0.0
2018-Mar-28 00:30N 51°53' E 004°18'0 0.0
2018-Mar-28 00:00N 51°53' E 004°18'0 0.0
2018-Mar-27 23:30N 51°53' E 004°18'0 0.0
2018-Mar-27 23:00N 51°53' E 004°18'0 0.0
2018-Mar-27 22:30N 51°53' E 004°18'0 0.1
2018-Mar-27 22:00N 51°53' E 004°18'0 0.0
2018-Mar-27 21:30N 51°53' E 004°18'0 0.0
2018-Mar-27 21:00N 51°53' E 004°18'0 0.0
2018-Mar-27 20:30N 51°53' E 004°18'0 0.0
2018-Mar-27 20:00N 51°53' E 004°18'0 0.0
2018-Mar-27 19:30N 51°53' E 004°18'0 0.0
2018-Mar-27 19:00N 51°53' E 004°18'  

Dump ship's entire track history